Time;durP1;ratioP1;P1;durP2;ratioP2;P2;SDS_P1;SDS_P2;PMS_P1;PMS_P2;Temp;Humidity;BMP_temperature;BMP_pressure;BME280_temperature;BME280_humidity;BME280_pressure;Samples;Min_cycle;Max_cycle;Signal;HPM_P1;HPM_P2
2022/09/03 00:00:16;;;;;;;0.25;0.10;;;17.60;66.70;;;;;;5036711;28;20032;-73
2022/09/03 00:02:47;;;;;;;0.30;0.00;;;17.60;66.70;;;;;;5036221;28;20398;-73
2022/09/03 00:05:38;;;;;;;4.50;0.15;;;17.50;67.30;;;;;;5036230;28;20041;-73
2022/09/03 00:08:32;;;;;;;0.10;0.00;;;17.50;67.20;;;;;;5036319;28;20444;-74
2022/09/03 00:11:00;;;;;;;2.17;0.10;;;17.50;67.10;;;;;;5036003;28;20034;-73
2022/09/03 00:13:37;;;;;;;2.85;0.00;;;17.40;67.40;;;;;;5035831;28;20032;-74
2022/09/03 00:16:09;;;;;;;0.57;0.00;;;17.40;67.60;;;;;;5035807;28;20100;-73
2022/09/03 00:18:41;;;;;;;5.80;0.05;;;17.30;67.60;;;;;;5035864;28;20033;-73
2022/09/03 00:21:16;;;;;;;2.63;0.00;;;17.30;68.30;;;;;;5036343;28;20147;-73
2022/09/03 00:23:45;;;;;;;0.25;0.00;;;17.30;68.10;;;;;;5035885;28;20471;-73
2022/09/03 00:26:16;;;;;;;0.50;0.00;;;17.30;68.40;;;;;;5035643;28;20501;-73
2022/09/03 00:28:48;;;;;;;1.10;0.10;;;17.30;68.20;;;;;;5035230;28;20032;-74
2022/09/03 00:31:27;;;;;;;0.38;0.00;;;17.20;68.50;;;;;;5017823;28;20388;-73
2022/09/03 00:34:21;;;;;;;0.30;0.00;;;17.30;68.50;;;;;;5017143;28;20128;-72
2022/09/03 00:36:48;;;;;;;0.22;0.00;;;17.30;68.20;;;;;;5008797;28;20049;-73
2022/09/03 00:39:24;;;;;;;0.17;0.00;;;17.30;68.50;;;;;;5035938;28;20021;-73
2022/09/03 00:42:14;;;;;;;0.45;0.20;;;17.30;68.40;;;;;;5035669;28;20425;-73
2022/09/03 00:44:59;;;;;;;0.65;0.00;;;17.20;68.60;;;;;;5035484;28;20028;-73
2022/09/03 00:47:43;;;;;;;5.55;0.70;;;17.20;69.00;;;;;;5017602;28;20030;-73
2022/09/03 00:50:28;;;;;;;2.05;0.00;;;17.10;68.90;;;;;;5035599;28;20030;-73
2022/09/03 00:53:09;;;;;;;0.30;0.00;;;17.10;69.10;;;;;;5017479;28;20053;-73
2022/09/03 00:55:46;;;;;;;0.47;0.00;;;17.10;69.40;;;;;;5017338;28;20485;-73
2022/09/03 00:58:19;;;;;;;2.38;0.20;;;17.10;69.80;;;;;;5035485;28;20478;-73
2022/09/03 01:00:45;;;;;;;4.85;0.00;;;17.10;70.00;;;;;;5035069;28;20051;-73
2022/09/03 01:03:25;;;;;;;1.85;0.05;;;17.10;69.30;;;;;;5034735;28;20033;-73
2022/09/03 01:06:17;;;;;;;0.63;0.00;;;17.10;69.40;;;;;;5035705;28;20026;-73
2022/09/03 01:08:51;;;;;;;0.10;0.00;;;17.10;69.50;;;;;;5034864;28;20494;-73
2022/09/03 01:12:00;;;;;;;0.25;0.10;;;17.10;69.70;;;;;;5034835;28;20128;-73
2022/09/03 01:14:46;;;;;;;2.05;0.00;;;17.00;69.30;;;;;;4994109;28;20061;-74
2022/09/03 01:17:29;;;;;;;3.58;0.00;;;17.10;69.50;;;;;;5034757;28;20030;-73
2022/09/03 01:20:08;;;;;;;2.97;0.10;;;17.00;69.70;;;;;;5034727;28;20021;-74
2022/09/03 01:23:02;;;;;;;0.15;0.00;;;17.10;69.90;;;;;;5034601;28;20032;-73
2022/09/03 01:25:46;;;;;;;4.03;0.30;;;17.10;70.30;;;;;;5034702;28;20070;-73
2022/09/03 01:28:36;;;;;;;0.70;0.00;;;17.20;70.70;;;;;;5034668;28;20026;-73
2022/09/03 01:31:25;;;;;;;3.42;0.08;;;17.20;70.00;;;;;;5016716;28;20028;-73
2022/09/03 01:34:36;;;;;;;3.40;0.00;;;17.20;69.90;;;;;;5034723;28;20067;-73
2022/09/03 01:37:36;;;;;;;3.55;0.30;;;17.20;69.90;;;;;;4991006;28;20040;-73
2022/09/03 01:40:13;;;;;;;0.13;0.00;;;17.30;69.50;;;;;;5034324;28;20021;-73
2022/09/03 01:43:07;;;;;;;1.55;0.00;;;17.30;69.50;;;;;;5034342;28;20056;-73
2022/09/03 01:45:53;;;;;;;1.80;0.20;;;17.40;69.50;;;;;;5033527;28;20033;-73
2022/09/03 01:48:45;;;;;;;0.15;0.00;;;17.40;69.50;;;;;;5034266;28;20037;-73
2022/09/03 01:51:10;;;;;;;1.65;0.00;;;17.30;69.40;;;;;;5034339;28;20179;-72
2022/09/03 01:54:03;;;;;;;1.30;0.00;;;17.30;70.00;;;;;;5034452;28;20025;-73
2022/09/03 01:56:41;;;;;;;0.32;0.00;;;17.40;69.70;;;;;;5034573;28;20076;-74
2022/09/03 01:59:26;;;;;;;4.22;0.20;;;17.30;69.90;;;;;;5034047;28;20544;-74
2022/09/03 02:02:01;;;;;;;0.57;0.00;;;17.30;69.60;;;;;;5034012;28;20021;-74
2022/09/03 02:04:27;;;;;;;0.65;0.00;;;17.40;70.30;;;;;;5015962;28;20113;-74
2022/09/03 02:06:56;;;;;;;0.45;0.10;;;17.40;69.70;;;;;;5033821;28;20029;-74
2022/09/03 02:09:22;;;;;;;;;;;17.30;69.70;;;;;;5034219;28;20032;-74
2022/09/03 02:12:02;;;;;;;0.15;0.00;;;17.30;70.10;;;;;;5033999;28;19909;-74
2022/09/03 02:14:29;;;;;;;2.47;0.10;;;17.30;70.10;;;;;;5034095;28;20025;-73
2022/09/03 02:16:59;;;;;;;1.08;0.00;;;17.20;70.00;;;;;;5033763;28;20394;-73
2022/09/03 02:19:28;;;;;;;0.68;0.20;;;17.20;70.10;;;;;;5033565;28;20025;-74
2022/09/03 02:21:56;;;;;;;0.32;0.13;;;17.10;70.10;;;;;;5033796;28;20021;-73
2022/09/03 02:24:23;;;;;;;0.65;0.30;;;17.10;71.00;;;;;;5033821;28;20070;-73
2022/09/03 02:26:49;;;;;;;2.50;0.43;;;17.00;71.20;;;;;;5033585;28;20539;-74
2022/09/03 02:29:16;;;;;;;0.38;0.00;;;16.90;71.30;;;;;;5033911;28;20046;-73
2022/09/03 02:31:43;;;;;;;0.10;0.00;;;16.80;71.60;;;;;;5033564;28;20021;-73
2022/09/03 02:34:09;;;;;;;1.42;0.00;;;16.80;71.90;;;;;;5015641;28;20013;-74
2022/09/03 02:36:38;;;;;;;0.45;0.20;;;16.80;72.00;;;;;;5033338;28;20021;-73
2022/09/03 02:39:04;;;;;;;0.85;0.03;;;16.70;72.20;;;;;;5033467;28;20103;-74
2022/09/03 02:41:30;;;;;;;0.20;0.00;;;16.70;72.40;;;;;;5015755;28;20091;-73
2022/09/03 02:44:18;;;;;;;1.98;0.00;;;16.60;72.50;;;;;;5033551;28;20018;-74
2022/09/03 02:46:52;;;;;;;3.78;0.17;;;16.60;73.00;;;;;;5034679;28;20033;-73
2022/09/03 02:49:18;;;;;;;0.40;0.00;;;16.50;73.30;;;;;;5033425;28;20125;-73
2022/09/03 02:51:44;;;;;;;0.43;0.03;;;16.50;73.90;;;;;;5015739;28;20065;-73
2022/09/03 02:54:13;;;;;;;0.82;0.00;;;16.40;73.50;;;;;;5033240;28;20029;-73
2022/09/03 02:56:39;;;;;;;1.00;0.10;;;16.40;73.70;;;;;;5036345;28;20017;-73
2022/09/03 02:59:06;;;;;;;1.60;0.00;;;16.30;73.80;;;;;;5037444;28;20072;-74
2022/09/03 03:01:32;;;;;;;1.98;0.00;;;16.30;74.40;;;;;;5037149;28;20072;-73
2022/09/03 03:03:58;;;;;;;4.85;0.10;;;16.20;74.30;;;;;;5037149;28;20045;-73
2022/09/03 03:06:24;;;;;;;4.90;0.00;;;16.20;74.30;;;;;;5037252;28;20033;-73
2022/09/03 03:08:51;;;;;;;1.65;0.00;;;16.20;74.30;;;;;;5037116;28;20100;-73
2022/09/03 03:11:21;;;;;;;0.50;0.00;;;16.20;74.70;;;;;;5037123;28;20438;-74
2022/09/03 03:13:46;;;;;;;0.10;0.00;;;16.20;74.80;;;;;;5019147;28;20032;-73
2022/09/03 03:16:14;;;;;;;1.92;0.20;;;16.20;74.90;;;;;;5037518;28;20382;-73
2022/09/03 03:18:40;;;;;;;3.65;0.00;;;16.10;75.50;;;;;;5036983;28;20022;-73
2022/09/03 03:21:10;;;;;;;4.78;0.30;;;16.10;75.10;;;;;;5019109;28;20053;-74
2022/09/03 03:23:37;;;;;;;0.28;0.00;;;16.10;75.40;;;;;;5019687;28;20050;-74
2022/09/03 03:26:09;;;;;;;0.20;0.00;;;16.10;75.20;;;;;;5037442;28;20026;-73
2022/09/03 03:28:35;;;;;;;0.35;0.00;;;16.10;75.80;;;;;;5036655;28;20025;-73
2022/09/03 03:31:18;;;;;;;1.65;0.00;;;16.00;76.10;;;;;;5036819;28;20031;-73
2022/09/03 03:33:44;;;;;;;0.93;0.08;;;16.00;75.90;;;;;;5036734;28;20040;-73
2022/09/03 03:36:13;;;;;;;2.30;0.10;;;16.10;76.50;;;;;;5036686;28;20025;-74
2022/09/03 03:38:39;;;;;;;;;;;16.10;75.80;;;;;;5037078;28;20364;-74
2022/09/03 03:41:10;;;;;;;2.78;0.10;;;16.00;75.90;;;;;;5036414;28;20001;-73
2022/09/03 03:43:36;;;;;;;1.08;0.15;;;16.00;75.90;;;;;;5036340;28;20029;-73
2022/09/03 03:46:01;;;;;;;0.15;0.00;;;16.00;76.30;;;;;;5036415;28;20034;-73
2022/09/03 03:48:27;;;;;;;4.60;0.10;;;16.00;76.20;;;;;;5018807;28;20525;-74
2022/09/03 03:50:53;;;;;;;1.08;0.13;;;15.90;76.60;;;;;;5037050;28;20144;-74
2022/09/03 03:53:19;;;;;;;0.85;0.30;;;15.90;76.60;;;;;;5036223;28;20072;-74
2022/09/03 03:55:58;;;;;;;0.63;0.10;;;15.90;77.20;;;;;;5018515;28;20026;-74
2022/09/03 03:58:24;;;;;;;0.43;0.03;;;15.90;76.60;;;;;;5036547;28;20049;-74
2022/09/03 04:00:51;;;;;;;2.22;0.10;;;15.90;76.80;;;;;;5036111;28;20021;-74
2022/09/03 04:03:17;;;;;;;2.28;0.20;;;15.90;76.90;;;;;;5036406;28;20394;-74
2022/09/03 04:05:42;;;;;;;0.47;0.00;;;15.90;77.50;;;;;;5036029;28;20025;-74
2022/09/03 04:08:08;;;;;;;2.95;0.00;;;15.90;77.10;;;;;;5017251;28;20029;-74
2022/09/03 04:10:35;;;;;;;0.43;0.00;;;15.90;77.40;;;;;;5018267;28;20029;-74
2022/09/03 04:13:01;;;;;;;0.13;0.00;;;15.90;77.30;;;;;;5035921;28;20026;-74
2022/09/03 04:15:26;;;;;;;2.25;0.00;;;15.80;77.40;;;;;;5036141;28;20032;-74
2022/09/03 04:17:55;;;;;;;0.45;0.00;;;15.80;77.50;;;;;;5018108;28;20021;-74
2022/09/03 04:20:20;;;;;;;0.38;0.00;;;15.80;77.80;;;;;;5035921;28;20108;-74
2022/09/03 04:22:46;;;;;;;1.00;0.00;;;15.80;77.80;;;;;;5035844;28;20057;-74
2022/09/03 04:25:12;;;;;;;3.00;0.00;;;15.80;78.10;;;;;;5035677;28;20453;-74
2022/09/03 04:27:37;;;;;;;0.05;0.00;;;15.80;78.60;;;;;;5017912;28;20478;-73
2022/09/03 04:30:06;;;;;;;1.05;0.00;;;16.10;78.40;;;;;;5036325;28;20438;-74
2022/09/03 04:32:56;;;;;;;0.10;0.00;;;15.70;78.30;;;;;;5035640;28;20036;-73
2022/09/03 04:35:23;;;;;;;1.05;0.00;;;15.70;78.30;;;;;;5035342;28;20100;-74
2022/09/03 04:37:49;;;;;;;1.05;0.00;;;15.60;79.00;;;;;;5035813;28;20437;-74
2022/09/03 04:40:15;;;;;;;0.52;0.00;;;15.70;78.90;;;;;;5017952;28;20029;-73
2022/09/03 04:42:41;;;;;;;0.40;0.00;;;15.70;79.10;;;;;;5035475;28;20029;-73
2022/09/03 04:45:07;;;;;;;0.00;0.00;;;15.60;79.10;;;;;;5017622;28;20044;-73
2022/09/03 04:47:36;;;;;;;0.90;0.25;;;15.60;79.80;;;;;;5017473;28;20032;-73
2022/09/03 04:50:02;;;;;;;1.48;0.00;;;15.60;79.70;;;;;;5035199;28;20026;-73
2022/09/03 04:52:30;;;;;;;3.85;0.10;;;15.50;79.80;;;;;;5035236;28;20482;-73
2022/09/03 04:54:57;;;;;;;1.85;0.10;;;16.00;80.20;;;;;;5035136;28;20021;-73
2022/09/03 04:57:22;;;;;;;1.33;0.00;;;15.50;80.10;;;;;;5035433;28;20105;-74
2022/09/03 04:59:48;;;;;;;1.45;0.00;;;15.50;80.10;;;;;;5035160;28;20053;-73
2022/09/03 05:02:14;;;;;;;0.85;0.00;;;15.50;80.60;;;;;;5035486;28;20032;-73
2022/09/03 05:04:43;;;;;;;2.00;0.28;;;15.40;80.30;;;;;;5034987;28;20027;-73
2022/09/03 05:07:09;;;;;;;1.17;0.13;;;15.40;80.80;;;;;;5034846;28;20074;-73
2022/09/03 05:09:35;;;;;;;1.58;0.10;;;15.40;80.60;;;;;;5053098;23;20124;-77
2022/09/03 05:12:05;;;;;;;3.75;0.20;;;15.30;80.80;;;;;;5055208;28;20131;-78
2022/09/03 05:14:33;;;;;;;1.23;0.30;;;15.30;81.30;;;;;;5055258;28;20040;-77
2022/09/03 05:16:59;;;;;;;0.95;0.30;;;15.30;81.50;;;;;;5055437;28;20022;-77
2022/09/03 05:19:25;;;;;;;2.47;0.30;;;15.80;82.10;;;;;;5055111;28;20531;-77
2022/09/03 05:21:50;;;;;;;1.23;0.20;;;15.20;82.10;;;;;;5037040;28;20066;-77
2022/09/03 05:24:16;;;;;;;1.98;0.28;;;15.20;82.20;;;;;;5055122;28;20512;-77
2022/09/03 05:26:42;;;;;;;0.32;0.10;;;15.30;82.00;;;;;;5037511;28;20014;-77
2022/09/03 05:29:07;;;;;;;0.75;0.00;;;15.20;82.30;;;;;;5055187;28;20477;-77
2022/09/03 05:31:35;;;;;;;1.15;0.40;;;15.20;82.60;;;;;;5054997;28;20021;-77
2022/09/03 05:34:03;;;;;;;2.05;0.00;;;15.20;82.50;;;;;;5054903;28;20115;-77
2022/09/03 05:36:34;;;;;;;2.45;0.03;;;15.20;82.80;;;;;;5054940;28;20385;-77
2022/09/03 05:38:59;;;;;;;5.78;0.00;;;15.20;83.00;;;;;;5054966;28;20041;-77
2022/09/03 05:41:27;;;;;;;0.60;0.10;;;15.20;83.40;;;;;;5036792;28;20029;-77
2022/09/03 05:43:54;;;;;;;2.28;0.10;;;15.20;83.30;;;;;;5036940;28;20044;-77
2022/09/03 05:46:25;;;;;;;0.40;0.10;;;15.20;83.20;;;;;;5037165;28;20021;-77
2022/09/03 05:48:51;;;;;;;1.55;0.10;;;15.30;83.40;;;;;;5055485;28;20021;-77
2022/09/03 05:51:17;;;;;;;0.20;0.10;;;15.30;83.30;;;;;;5037178;28;20029;-77
2022/09/03 05:53:52;;;;;;;3.03;0.00;;;15.40;83.60;;;;;;5054563;28;20071;-77
2022/09/03 05:56:19;;;;;;;0.15;0.00;;;15.40;83.20;;;;;;5054847;28;20032;-76
2022/09/03 05:58:51;;;;;;;2.28;0.00;;;15.50;82.90;;;;;;5054436;28;20018;-76
2022/09/03 06:01:24;;;;;;;0.43;0.00;;;15.60;83.00;;;;;;5054671;28;20032;-76
2022/09/03 06:03:58;;;;;;;0.98;0.00;;;15.70;82.80;;;;;;5036431;28;20528;-76
2022/09/03 06:06:25;;;;;;;3.50;0.45;;;15.80;82.60;;;;;;5054380;28;20036;-76
2022/09/03 06:08:53;;;;;;;0.95;0.20;;;16.40;82.80;;;;;;5036660;28;20029;-77
2022/09/03 06:11:20;;;;;;;0.10;0.00;;;15.90;82.60;;;;;;5036562;28;20052;-76
2022/09/03 06:13:46;;;;;;;0.57;0.00;;;15.90;83.20;;;;;;5054236;28;20029;-76
2022/09/03 06:16:12;;;;;;;1.77;0.10;;;15.90;82.70;;;;;;5054198;28;20031;-77
2022/09/03 06:18:38;;;;;;;1.20;0.20;;;16.00;83.20;;;;;;5054236;28;20033;-76
2022/09/03 06:21:06;;;;;;;5.38;0.00;;;16.10;82.10;;;;;;5054141;28;20017;-77
2022/09/03 06:23:33;;;;;;;0.60;0.00;;;16.30;81.60;;;;;;5053959;28;20028;-77
2022/09/03 06:26:00;;;;;;;1.98;0.00;;;16.40;81.70;;;;;;5054417;28;20021;-76
2022/09/03 06:28:26;;;;;;;0.20;0.00;;;16.60;80.60;;;;;;5053701;28;20051;-77
2022/09/03 06:30:52;;;;;;;1.88;0.08;;;16.70;80.70;;;;;;5035408;28;20150;-77
2022/09/03 06:33:18;;;;;;;1.63;0.20;;;16.90;80.80;;;;;;5054415;28;20433;-77
2022/09/03 06:35:45;;;;;;;0.28;0.00;;;16.90;80.10;;;;;;5054510;28;20174;-77
2022/09/03 06:38:11;;;;;;;0.08;0.00;;;17.10;78.80;;;;;;5054066;28;20028;-77
2022/09/03 06:40:37;;;;;;;3.97;0.10;;;17.20;78.90;;;;;;5054121;28;20025;-77
2022/09/03 06:43:05;;;;;;;1.27;0.32;;;17.30;78.90;;;;;;5036024;28;20021;-76
2022/09/03 06:45:30;;;;;;;1.53;0.00;;;17.40;77.90;;;;;;5053942;28;20029;-77
2022/09/03 06:47:56;;;;;;;6.88;0.00;;;17.50;77.30;;;;;;5054307;28;20021;-77
2022/09/03 06:50:22;;;;;;;1.33;0.47;;;17.60;77.40;;;;;;5053199;28;20033;-77
2022/09/03 06:52:54;;;;;;;0.60;0.00;;;18.00;76.80;;;;;;5036194;28;20035;-77
2022/09/03 06:55:22;;;;;;;0.25;0.00;;;19.30;77.90;;;;;;5036069;28;20057;-80
2022/09/03 06:57:55;;;;;;;0.10;0.00;;;18.00;76.60;;;;;;5035993;28;20049;-77
2022/09/03 07:00:22;;;;;;;2.17;0.30;;;18.00;75.90;;;;;;5050978;28;20441;-77
2022/09/03 07:02:47;;;;;;;0.30;0.00;;;18.10;75.50;;;;;;5035481;28;20061;-72
2022/09/03 07:05:13;;;;;;;4.28;0.32;;;18.20;76.00;;;;;;5035138;28;20021;-72
2022/09/03 07:07:39;;;;;;;4.13;0.43;;;18.30;75.30;;;;;;5035448;28;20025;-73
2022/09/03 07:10:05;;;;;;;0.75;0.00;;;18.40;76.00;;;;;;5053287;28;20021;-73
2022/09/03 07:12:33;;;;;;;0.45;0.00;;;18.50;75.10;;;;;;5053614;28;20028;-72
2022/09/03 07:14:59;;;;;;;0.65;0.00;;;18.50;74.60;;;;;;5035645;28;20051;-73
2022/09/03 07:17:24;;;;;;;3.83;0.00;;;18.70;74.70;;;;;;5053243;28;20017;-74
2022/09/03 07:19:56;;;;;;;0.38;0.00;;;18.80;73.40;;;;;;5053261;28;20025;-73
2022/09/03 07:22:21;;;;;;;1.05;0.00;;;18.90;73.60;;;;;;5053492;28;20045;-73
2022/09/03 07:24:47;;;;;;;1.50;0.20;;;19.00;73.10;;;;;;5052819;28;20107;-73
2022/09/03 07:27:13;;;;;;;0.32;0.00;;;19.10;72.80;;;;;;5052910;28;20048;-74
2022/09/03 07:29:38;;;;;;;0.20;0.05;;;19.20;72.70;;;;;;5052667;28;20024;-73
2022/09/03 07:32:05;;;;;;;1.05;0.00;;;19.30;72.30;;;;;;5052832;28;20032;-73
2022/09/03 07:34:30;;;;;;;0.00;0.00;;;19.40;72.60;;;;;;5052804;28;20058;-73
2022/09/03 07:36:56;;;;;;;0.10;0.00;;;19.50;72.40;;;;;;5053147;28;20542;-73
2022/09/03 07:39:22;;;;;;;2.92;0.00;;;19.60;71.40;;;;;;5034939;28;20031;-73
2022/09/03 07:41:49;;;;;;;3.85;0.10;;;19.60;71.70;;;;;;5054393;28;20108;-73
2022/09/03 07:44:18;;;;;;;2.28;0.40;;;19.80;71.50;;;;;;5056445;28;20020;-73
2022/09/03 07:46:44;;;;;;;2.38;0.20;;;19.90;71.20;;;;;;5038801;28;20390;-72
2022/09/03 07:49:10;;;;;;;0.40;0.00;;;20.00;71.20;;;;;;5038472;28;20112;-72
2022/09/03 07:51:37;;;;;;;0.17;0.00;;;20.20;70.60;;;;;;5056319;28;20563;-73
2022/09/03 07:54:09;;;;;;;2.25;0.00;;;20.20;70.40;;;;;;5038513;28;20036;-72
2022/09/03 07:56:35;;;;;;;0.65;0.00;;;20.40;70.10;;;;;;5038223;28;20124;-72
2022/09/03 07:59:04;;;;;;;0.52;0.00;;;20.40;70.30;;;;;;5056115;28;20040;-72
2022/09/03 08:01:31;;;;;;;3.95;0.00;;;20.50;70.20;;;;;;5056489;28;20021;-72
2022/09/03 08:04:00;;;;;;;0.47;0.00;;;20.70;69.20;;;;;;5055915;28;20036;-72
2022/09/03 08:06:28;;;;;;;1.45;0.00;;;20.80;68.60;;;;;;5056230;28;20029;-74
2022/09/03 08:08:59;;;;;;;0.25;0.00;;;20.80;69.40;;;;;;5037920;28;20588;-72
2022/09/03 08:11:27;;;;;;;0.00;0.00;;;20.90;69.00;;;;;;5056478;28;20486;-72
2022/09/03 08:14:02;;;;;;;1.80;0.15;;;21.00;69.10;;;;;;5037907;28;20448;-72
2022/09/03 08:16:34;;;;;;;0.28;0.00;;;21.10;68.20;;;;;;5056024;28;20025;-73
2022/09/03 08:19:00;;;;;;;1.85;0.00;;;21.30;68.40;;;;;;5056520;28;20033;-72
2022/09/03 08:21:26;;;;;;;1.45;0.00;;;21.40;68.40;;;;;;5055753;28;20478;-72
2022/09/03 08:23:55;;;;;;;2.80;0.00;;;21.50;67.20;;;;;;5055852;28;20017;-72
2022/09/03 08:26:21;;;;;;;0.90;0.00;;;21.60;66.30;;;;;;5055685;28;20120;-72
2022/09/03 08:28:47;;;;;;;0.00;0.00;;;21.70;66.60;;;;;;5055446;28;20051;-72
2022/09/03 08:31:19;;;;;;;0.20;0.00;;;21.80;66.00;;;;;;5055489;28;20024;-72
2022/09/03 08:33:49;;;;;;;1.75;0.00;;;21.80;66.40;;;;;;5055331;28;20074;-72
2022/09/03 08:36:24;;;;;;;0.65;0.15;;;22.00;66.50;;;;;;5037840;28;20028;-72
2022/09/03 08:38:53;;;;;;;0.17;0.00;;;22.10;66.00;;;;;;5055905;28;20029;-72
2022/09/03 08:41:37;;;;;;;0.93;0.00;;;22.20;66.30;;;;;;5055630;28;20017;-72
2022/09/03 08:44:07;;;;;;;0.45;0.00;;;22.40;64.70;;;;;;5055111;28;20036;-72
2022/09/03 08:46:53;;;;;;;1.85;0.00;;;22.40;64.10;;;;;;5055276;28;20114;-72
2022/09/03 08:49:30;;;;;;;0.00;0.00;;;22.50;64.70;;;;;;5037111;28;20033;-72
2022/09/03 08:52:00;;;;;;;0.52;0.00;;;22.70;64.70;;;;;;5055623;28;20048;-72
2022/09/03 08:54:29;;;;;;;0.32;0.00;;;22.80;63.80;;;;;;5054806;28;20036;-72
2022/09/03 08:57:00;;;;;;;2.17;0.32;;;23.00;64.50;;;;;;5055137;28;20029;-72
2022/09/03 08:59:26;;;;;;;0.00;0.00;;;23.10;63.60;;;;;;5055665;28;20017;-72
2022/09/03 09:02:05;;;;;;;3.85;0.00;;;23.20;63.20;;;;;;5055050;28;20025;-72
2022/09/03 09:04:59;;;;;;;0.30;0.00;;;23.30;61.90;;;;;;5055391;28;20033;-72
2022/09/03 09:08:01;;;;;;;0.50;0.15;;;23.30;61.60;;;;;;5037285;28;20029;-72
2022/09/03 09:10:27;;;;;;;1.08;0.00;;;23.40;61.10;;;;;;5055111;28;20044;-72
2022/09/03 09:13:08;;;;;;;0.90;0.00;;;23.40;61.70;;;;;;5054705;28;20029;-72
2022/09/03 09:16:07;;;;;;;0.98;0.00;;;23.50;62.60;;;;;;5054757;28;20512;-72
2022/09/03 09:18:50;;;;;;;4.13;0.00;;;23.60;61.30;;;;;;5054855;28;20021;-72
2022/09/03 09:21:45;;;;;;;1.20;0.00;;;23.70;61.40;;;;;;5036684;28;20469;-72
2022/09/03 09:24:25;;;;;;;0.25;0.00;;;23.80;61.60;;;;;;5032565;28;20367;-73
2022/09/03 09:27:01;;;;;;;0.40;0.00;;;23.90;60.10;;;;;;5036626;28;20111;-73
2022/09/03 09:29:34;;;;;;;1.55;0.00;;;24.00;60.70;;;;;;5054587;28;20482;-74
2022/09/03 09:32:00;;;;;;;0.95;0.00;;;24.10;59.20;;;;;;5055731;28;20059;-77
2022/09/03 09:34:26;;;;;;;0.30;0.00;;;24.20;59.40;;;;;;5055265;28;20063;-77
2022/09/03 09:36:54;;;;;;;1.85;0.00;;;24.20;59.20;;;;;;5055331;28;20021;-77
2022/09/03 09:39:21;;;;;;;0.20;0.00;;;24.40;59.10;;;;;;5036894;28;20032;-77
2022/09/03 09:42:04;;;;;;;0.00;0.00;;;24.50;59.30;;;;;;5055126;28;20017;-77
2022/09/03 09:44:29;;;;;;;0.20;0.00;;;24.50;59.00;;;;;;5054493;28;20021;-75
2022/09/03 09:47:25;;;;;;;1.75;0.00;;;24.60;58.80;;;;;;5054511;28;20024;-74
2022/09/03 09:50:03;;;;;;;0.25;0.00;;;24.70;57.90;;;;;;5054409;28;20032;-74
2022/09/03 09:52:30;;;;;;;0.00;0.00;;;24.70;57.80;;;;;;5054212;28;20025;-74
2022/09/03 09:55:13;;;;;;;0.00;0.00;;;24.80;57.90;;;;;;5053830;28;20017;-74
2022/09/03 09:57:39;;;;;;;2.83;0.00;;;24.80;57.40;;;;;;5054114;28;20478;-74
2022/09/03 10:00:12;;;;;;;0.10;0.00;;;24.90;57.50;;;;;;5036118;28;20024;-74
2022/09/03 10:02:53;;;;;;;1.13;0.00;;;24.90;57.80;;;;;;5036174;28;20051;-73
2022/09/03 10:05:25;;;;;;;0.93;0.00;;;25.00;56.30;;;;;;5053300;28;20062;-74
2022/09/03 10:08:04;;;;;;;1.23;0.00;;;25.10;56.20;;;;;;5036319;28;20028;-74
2022/09/03 10:10:36;;;;;;;0.40;0.00;;;25.20;56.00;;;;;;5053723;28;20037;-73
2022/09/03 10:13:17;;;;;;;0.82;0.00;;;25.20;56.70;;;;;;5035576;28;20025;-74
2022/09/03 10:16:08;;;;;;;1.50;0.00;;;25.40;56.30;;;;;;5053883;28;20075;-75
2022/09/03 10:18:51;;;;;;;1.20;0.00;;;25.50;55.10;;;;;;5053572;28;20024;-74
2022/09/03 10:21:39;;;;;;;0.85;0.00;;;25.60;56.10;;;;;;5053392;28;20029;-72
2022/09/03 10:24:29;;;;;;;1.00;0.22;;;25.80;54.80;;;;;;5053619;28;20482;-73
2022/09/03 10:26:54;;;;;;;1.17;0.10;;;25.90;54.10;;;;;;5035696;28;20040;-73
2022/09/03 10:29:28;;;;;;;1.55;0.00;;;26.00;54.20;;;;;;5053474;28;20021;-72
2022/09/03 10:32:24;;;;;;;1.02;0.00;;;26.10;54.40;;;;;;5035657;28;20029;-72
2022/09/03 10:35:04;;;;;;;0.00;0.00;;;26.20;54.20;;;;;;5053189;28;20021;-71
2022/09/03 10:37:39;;;;;;;5.15;0.00;;;26.30;54.20;;;;;;5053417;28;20028;-73
2022/09/03 10:40:30;;;;;;;0.63;0.00;;;26.50;54.00;;;;;;5053856;28;20397;-73
2022/09/03 10:42:59;;;;;;;1.40;0.00;;;26.70;53.20;;;;;;5036046;28;20519;-73
2022/09/03 10:46:02;;;;;;;0.45;0.00;;;26.80;53.50;;;;;;5035301;28;20029;-72
2022/09/03 10:48:58;;;;;;;1.33;0.00;;;26.90;53.20;;;;;;5053384;28;20029;-73
2022/09/03 10:51:39;;;;;;;1.13;0.00;;;27.10;53.00;;;;;;5035455;28;20038;-73
2022/09/03 10:54:58;;;;;;;1.35;0.00;;;27.30;51.60;;;;;;5053417;28;20071;-72
2022/09/03 10:57:43;;;;;;;0.10;0.00;;;27.40;51.90;;;;;;4956503;28;20570;-73
2022/09/03 11:00:11;;;;;;;1.55;0.20;;;27.50;52.10;;;;;;5035575;28;20405;-73
2022/09/03 11:03:14;;;;;;;0.43;0.00;;;27.70;51.90;;;;;;5053277;28;20389;-72
2022/09/03 11:05:52;;;;;;;0.15;0.13;;;27.80;51.00;;;;;;5052885;28;20097;-73
2022/09/03 11:08:23;;;;;;;0.08;0.00;;;27.80;51.30;;;;;;5035224;28;20351;-73
2022/09/03 11:11:04;;;;;;;0.10;0.10;;;27.90;51.20;;;;;;5052787;28;20044;-73
2022/09/03 11:13:48;;;;;;;1.75;0.00;;;28.00;50.40;;;;;;5053176;28;20047;-73
2022/09/03 11:16:21;;;;;;;0.30;0.00;;;28.10;50.70;;;;;;5053965;28;20032;-73
2022/09/03 11:19:14;;;;;;;0.10;0.00;;;28.20;50.00;;;;;;5056890;28;20021;-73
2022/09/03 11:21:43;;;;;;;0.55;0.00;;;28.30;50.10;;;;;;5056741;28;20100;-72
2022/09/03 11:24:25;;;;;;;0.43;0.00;;;28.40;50.20;;;;;;5056992;28;20025;-73
2022/09/03 11:27:17;;;;;;;1.25;0.00;;;28.50;50.10;;;;;;5057153;28;20025;-73
2022/09/03 11:29:56;;;;;;;0.10;0.00;;;28.50;49.00;;;;;;5028317;28;20036;-73
2022/09/03 11:32:32;;;;;;;0.70;0.00;;;28.70;49.50;;;;;;5056741;28;20017;-72
2022/09/03 11:34:58;;;;;;;5.63;0.30;;;28.90;49.90;;;;;;5056621;28;20033;-72
2022/09/03 11:37:26;;;;;;;0.80;0.00;;;29.10;49.40;;;;;;5038563;28;20466;-72
2022/09/03 11:39:53;;;;;;;;;;;29.20;49.40;;;;;;5056844;28;20078;-73
2022/09/03 11:42:37;;;;;;;0.30;0.00;;;29.40;49.00;;;;;;5056457;28;19905;-73
2022/09/03 11:45:35;;;;;;;0.00;0.00;;;29.50;48.20;;;;;;5038802;28;20039;-72
2022/09/03 11:48:01;;;;;;;1.95;0.52;;;29.70;48.60;;;;;;5057121;28;20107;-72
2022/09/03 11:50:29;;;;;;;0.98;0.00;;;29.80;48.20;;;;;;5056399;28;20530;-72
2022/09/03 11:53:24;;;;;;;0.32;0.00;;;29.90;47.20;;;;;;5056416;28;20029;-72
2022/09/03 11:56:00;;;;;;;0.77;0.00;;;29.90;47.70;;;;;;5038353;28;20063;-72
2022/09/03 11:58:38;;;;;;;1.95;0.00;;;30.10;46.90;;;;;;5056227;28;20056;-72
2022/09/03 12:01:09;;;;;;;0.93;0.03;;;30.20;46.50;;;;;;5038317;28;20029;-72
2022/09/03 12:03:50;;;;;;;0.13;0.10;;;30.20;47.30;;;;;;5038186;28;20528;-72
2022/09/03 12:06:54;;;;;;;0.00;0.00;;;30.10;47.80;;;;;;5056506;28;20036;-72
2022/09/03 12:09:57;;;;;;;1.27;0.20;;;30.20;48.00;;;;;;5027631;28;20457;-73
2022/09/03 12:12:47;;;;;;;0.95;0.25;;;30.30;47.80;;;;;;5056126;28;20028;-73
2022/09/03 12:15:20;;;;;;;0.25;0.00;;;30.50;47.40;;;;;;5055741;28;20103;-72
2022/09/03 12:18:17;;;;;;;1.70;0.00;;;30.70;47.00;;;;;;5038457;28;20049;-73
2022/09/03 12:20:44;;;;;;;;;;;30.80;46.30;;;;;;5056694;28;20580;-74
2022/09/03 12:23:11;;;;;;;1.85;0.00;;;31.00;46.50;;;;;;5055879;28;19944;-74
2022/09/03 12:25:47;;;;;;;2.05;0.00;;;31.10;46.10;;;;;;5037927;28;20035;-74
2022/09/03 12:28:22;;;;;;;0.38;0.00;;;31.10;46.50;;;;;;5036671;28;20401;-74
2022/09/03 12:30:52;;;;;;;1.75;0.00;;;31.20;46.80;;;;;;5056019;28;20025;-75
2022/09/03 12:33:20;;;;;;;0.32;0.00;;;31.30;46.00;;;;;;5056033;28;20024;-74
2022/09/03 12:35:58;;;;;;;0.65;0.00;;;31.40;45.50;;;;;;5056072;28;20021;-73
2022/09/03 12:38:26;;;;;;;1.38;0.00;;;31.20;46.50;;;;;;5055839;28;20033;-73
2022/09/03 12:40:53;;;;;;;0.10;0.00;;;31.20;45.80;;;;;;5055435;28;20017;-73
2022/09/03 12:43:19;;;;;;;0.40;0.13;;;33.20;46.30;;;;;;5055620;28;20093;-73
2022/09/03 12:45:49;;;;;;;1.45;0.00;;;31.40;46.30;;;;;;5055521;28;20419;-74
2022/09/03 12:48:17;;;;;;;1.05;0.20;;;31.50;46.60;;;;;;5055679;28;20141;-72
2022/09/03 12:50:44;;;;;;;1.55;0.00;;;31.70;45.50;;;;;;5037325;28;20497;-72
2022/09/03 12:53:13;;;;;;;1.10;0.00;;;31.80;45.70;;;;;;5055184;28;20104;-73
2022/09/03 12:55:46;;;;;;;2.83;0.00;;;32.00;45.30;;;;;;5055253;28;20028;-72
2022/09/03 12:58:30;;;;;;;0.40;0.00;;;32.10;45.20;;;;;;5055554;28;20020;-72
2022/09/03 13:01:07;;;;;;;3.65;0.10;;;32.00;44.60;;;;;;5037272;28;20393;-73
2022/09/03 13:03:53;;;;;;;0.20;0.00;;;32.00;44.40;;;;;;5055435;28;20025;-73
2022/09/03 13:06:22;;;;;;;2.63;0.22;;;32.00;44.90;;;;;;5037048;28;20434;-72
2022/09/03 13:09:04;;;;;;;0.98;0.00;;;31.80;44.10;;;;;;5054912;28;20702;-73
2022/09/03 13:11:36;;;;;;;0.90;0.00;;;31.70;45.40;;;;;;5055455;28;20108;-73
2022/09/03 13:14:09;;;;;;;0.88;0.05;;;31.80;44.00;;;;;;5055280;28;20029;-73
2022/09/03 13:16:44;;;;;;;0.60;0.17;;;31.80;43.50;;;;;;5036946;28;20036;-73
2022/09/03 13:19:27;;;;;;;2.00;0.17;;;31.80;43.60;;;;;;5055282;28;20466;-73